KAXN/AXN METAR and TAF weather

Enter ICAO airport designator
Station Type Date Time Source
KAXN METAR 2019/04/19 22:53 UTC NOAA

KAXN 192253Z AUTO 21010KT 10SM CLR 17/02 A2992 RMK AO2 SLP138 T01670017


Station Type Date Time Source
KAXN Decoded METAR 2019/04/19 22:53 UTC NOAA

CHANDLER FIELD, MN, United States (KAXN) 45-52N 095-24W 433M
Apr 19, 2019 - 06:53 PM EDT / 2019.04.19 2253 UTC
Wind: from the SSW (210 degrees) at 12 MPH (10 KT):0
Visibility: 10 mile(s):0
Sky conditions: clear
Temperature: 62.1 F (16.7 C)
Dew Point: 35.1 F (1.7 C)
Relative Humidity: 36%
Pressure (altimeter): 29.92 in. Hg (1013 hPa)
ob: KAXN 192253Z AUTO 21010KT 10SM CLR 17/02 A2992 RMK AO2 SLP138 T01670017
cycle: 23

Station Type Date Time Source
KAXN TAF 2019/04/19 18:22 UTC NOAA

TAF KAXN 191720Z 1918/2018 22010KT P6SM BKN300
FM200300 18008KT P6SM SKC

Example: see airport list